KL1SF-7 Weather Reports


Display with metric or nautical units.
time (UTC)temp
F
wind
direction
speed
MPH
gust
MPH
rain 1hr
in
rain 24hr
in
rain mn
in
humidity
%
barometer
mb
20181017003413 34 47 0.0 0.0 0.00 0.05 0.05 94 1021.8
20181017002351 33 347 0.0 0.0 0.00 0.05 0.05 94 1021.6
20181017001357 34 61 0.0 5.0 0.00 0.05 0.05 94 1021.6
20181017000331 34 54 0.0 3.0 0.00 0.05 0.05 94 1021.7
20181016235404 33 79 0.0 2.0 0.01 0.05 0.05 94 1021.6
20181016234358 33 89 4.0 6.0 0.01 0.05 0.05 94 1021.6
20181016233343 34 42 0.0 0.0 0.01 0.05 0.05 94 1021.7
20181016232334 34 42 0.0 0.0 0.01 0.05 0.05 94 1022.4
20181016231348 34 42 3.0 5.0 0.02 0.05 0.05 94 1022.4
20181016230346 34 34 0.0 0.0 0.02 0.05 0.05 94 1021.6
20181016225356 34 35 0.0 0.0 0.01 0.04 0.04 94 1021.6
20181016224415 34 28 0.0 2.0 0.02 0.04 0.04 94 1021.6
20181016223336 34 86 0.0 6.0 0.02 0.04 0.04 94 1021.6
20181016222402 34 80 4.0 5.0 0.02 0.04 0.04 94 1022.2
20181016221339 34 17 0.0 7.0 0.01 0.03 0.03 94 1021.9
20181016220346 35 78 0.0 6.0 0.02 0.03 0.03 94 1021.9
20181016215358 33 73 2.0 7.0 0.02 0.03 0.03 94 1021.8
20181016214337 34 35 1.0 8.0 0.01 0.02 0.02 94 1021.7
20181016213356 34 48 0.0 10.0 0.01 0.02 0.02 94 1021.7
20181016212429 34 82 7.0 7.0 0.01 0.02 0.02 94 1021.2
20181016211416 35 23 0.0 6.0 0.01 0.02 0.02 94 1021.2
20181016210344 35 64 0.0 7.0 0.00 0.01 0.01 94 1021.7
20181016205337 35 42 0.0 2.0 0.00 0.01 0.01 94 1021.7
20181016204338 35 30 0.0 4.0 0.00 0.01 0.01 94 1022.2
20181016203353 34 360 0.0 3.0 0.01 0.01 0.01 94 1021.4
20181016201339 34 58 0.0 2.0 0.01 0.01 0.01 94 1021.5
20181016200339 34 41 0.0 0.0 0.01 0.01 0.01 93 1020.8
20181016195346 33 330 0.0 0.0 0.01 0.01 0.01 93 1021.4
20181016194337 33 318 0.0 0.0 0.01 0.01 0.01 93 1020.9
20181016193335 34 68 0.0 3.0 0.00 0.00 0.00 93 1020.9
20181016192343 33 329 0.0 0.0 0.00 0.00 0.00 93 1021.4
20181016191358 33 169 0.0 3.0 0.00 0.00 0.00 93 1021.6
20181016190337 34 59 0.0 0.0 0.00 0.00 0.00 93 1021.6
20181016185338 33 325 0.0 8.0 0.00 0.00 0.00 93 1022.0
20181016184354 33 48 0.0 5.0 0.00 0.00 0.00 93 1022.0
20181016183404 33 47 0.0 6.0 0.00 0.00 0.00 93 1022.0
20181016182348 33 41 0.0 6.0 0.00 0.00 0.00 93 1021.8
20181016181406 33 44 1.0 11.0 0.00 0.00 0.00 93 1021.8
20181016180408 33 17 5.0 11.0 0.00 0.00 0.00 93 1021.6
20181016175337 33 158 4.0 13.0 0.00 0.00 0.00 92 1021.6
20181016174350 33 72 4.0 7.0 0.00 0.00 0.00 92 1021.6
20181016173346 32 305 0.0 3.0 0.00 0.00 0.00 92 1021.4
20181016172347 33 65 3.0 10.0 0.00 0.00 0.00 92 1021.4
20181016171354 32 30 2.0 10.0 0.00 0.00 0.00 92 1021.4
20181016170413 32 69 2.0 4.0 0.00 0.00 0.00 92 1021.0
20181016165406 32 47 5.0 7.0 0.00 0.00 0.00 92 1021.0
20181016164411 32 10 1.0 10.0 0.00 0.00 0.00 92 1021.0
20181016163420 31 352 0.0 8.0 0.00 0.00 0.00 92 1020.7
20181016162418 32 25 4.0 6.0 0.00 0.00 0.00 92 1020.7
20181016161335 32 64 3.0 6.0 0.00 0.00 0.00 92 1020.8
20181016160343 31 58 1.0 10.0 0.00 0.00 0.00 92 1020.8
20181016155404 31 58 3.0 15.0 0.00 0.00 0.00 92 1020.7
20181016154410 30 56 2.0 4.0 0.00 0.00 0.00 91 1020.7
20181016153408 30 40 2.0 4.0 0.00 0.00 0.00 91 1020.7
20181016152419 29 349 0.0 4.0 0.00 0.00 0.00 90 1020.6
20181016151333 29 336 4.0 8.0 0.00 0.00 0.00 89 1021.2
20181016150338 30 65 5.0 7.0 0.00 0.00 0.00 89 1021.2
20181016145345 29 58 3.0 5.0 0.00 0.00 0.00 87 1021.2
20181016144346 29 360 1.0 5.0 0.00 0.00 0.00 86 1021.2
20181016143403 30 28 3.0 6.0 0.00 0.00 0.00 84 1021.3
20181016142404 30 64 2.0 10.0 0.00 0.00 0.00 79 1021.6
20181016135349 34 72 2.0 12.0 0.00 0.00 0.00 60 1021.3
20181016134346 36 42 1.0 11.0 0.00 0.00 0.00 47 1021.3
20181016131338 36 37 5.0 16.0 0.00 0.00 0.00 45 1019.7
20181016130333 36 41 6.0 12.0 0.00 0.00 0.00 42 1020.5
20181016125340 37 45 9.0 12.0 0.00 0.00 0.00 43 1020.1
20181016124415 37 45 6.0 14.0 0.00 0.00 0.00 44 1020.1
20181016123418 36 49 7.0 22.0 0.00 0.00 0.00 39 1020.2
20181016122417 37 59 7.0 14.0 0.00 0.00 0.00 37 1020.4
20181016121407 37 69 4.0 12.0 0.00 0.00 0.00 38 1020.4
20181016120404 37 41 6.0 14.0 0.00 0.00 0.00 41 1020.9
20181016115413 36 8 5.0 13.0 0.00 0.00 0.00 39 1020.7
20181016113400 36 308 3.0 11.0 0.00 0.00 0.00 39 1020.8
20181016112355 36 14 2.0 13.0 0.00 0.00 0.00 38 1021.1
20181016111352 36 16 7.0 13.0 0.00 0.00 0.00 37 1021.1
20181016105339 37 27 4.0 10.0 0.00 0.00 0.00 35 1020.7
20181016104352 37 44 3.0 11.0 0.00 0.00 0.00 35 1020.7
20181016103402 37 13 4.0 8.0 0.00 0.00 0.00 31 1020.8
20181016102403 37 360 7.0 10.0 0.00 0.00 0.00 31 1021.2
20181016101337 37 49 2.0 13.0 0.00 0.00 0.00 31 1021.0
20181016100334 37 61 2.0 11.0 0.00 0.00 0.00 30 1021.0
20181016095344 37 59 8.0 11.0 0.00 0.00 0.00 29 1021.0
20181016094426 37 357 3.0 11.0 0.00 0.00 0.00 31 1021.0
20181016093352 37 360 3.0 6.0 0.00 0.00 0.00 31 1021.2
20181016092359 37 28 2.0 8.0 0.00 0.00 0.00 30 1021.7
20181016091405 36 6 3.0 8.0 0.00 0.00 0.00 31 1021.7
20181016090430 36 352 0.0 8.0 0.00 0.00 0.00 31 1021.2
20181016085330 36 52 5.0 11.0 0.00 0.00 0.00 28 1021.6
20181016084340 36 360 0.0 10.0 0.00 0.00 0.00 30 1021.4
20181016083330 36 28 1.0 3.0 0.00 0.00 0.00 30 1022.2
20181016082349 36 72 3.0 19.0 0.00 0.00 0.00 28 1022.0
20181016081341 36 318 2.0 13.0 0.00 0.00 0.00 28 1021.8
20181016080356 36 42 1.0 12.0 0.00 0.00 0.00 31 1021.8
20181016075341 36 17 6.0 14.0 0.00 0.00 0.00 28 1021.8
20181016074337 36 30 1.0 11.0 0.00 0.00 0.00 28 1021.9
20181016073347 36 51 1.0 12.0 0.00 0.00 0.00 28 1021.9
20181016072333 36 11 6.0 17.0 0.00 0.00 0.00 28 1022.1
20181016071347 36 7 5.0 17.0 0.00 0.00 0.00 27 1022.1
20181016070335 36 16 4.0 11.0 0.00 0.00 0.00 27 1021.6
20181016065400 36 58 7.0 10.0 0.00 0.00 0.00 27 1021.6
20181016064405 36 37 3.0 11.0 0.00 0.00 0.00 26 1021.6
20181016063417 36 27 2.0 8.0 0.00 0.00 0.00 26 1021.5
20181016062439 35 66 6.0 7.0 0.00 0.00 0.00 28 1021.8
20181016061338 36 49 2.0 11.0 0.00 0.00 0.00 26 1021.9
20181016060341 36 58 2.0 6.0 0.00 0.00 0.00 26 1021.9
20181016055352 36 360 5.0 9.0 0.00 0.00 0.00 25 1022.2
20181016054336 36 47 4.0 7.0 0.00 0.00 0.00 25 1022.8
20181016053404 35 24 4.0 5.0 0.00 0.00 0.00 26 1022.0
20181016052431 35 360 0.0 11.0 0.00 0.00 0.00 26 1022.1
20181016050422 35 347 1.0 8.0 0.00 0.00 0.00 27 1022.2
20181016045405 35 44 2.0 4.0 0.00 0.00 0.00 26 1022.3
20181016043340 35 69 0.0 5.0 0.00 0.00 0.00 26 1022.3
20181016042343 35 62 3.0 4.0 0.00 0.00 0.00 26 1022.4
20181016041355 35 35 1.0 3.0 0.00 0.00 0.00 26 1022.4
20181016035344 35 37 3.0 7.0 0.00 0.00 0.00 26 1023.0
20181016033345 35 353 0.0 3.0 0.00 0.00 0.00 26 1022.3
20181016032452 35 32 0.0 5.0 0.00 0.00 0.00 27 1023.0
20181016031338 35 239 0.0 4.0 0.00 0.00 0.00 28 1023.4
20181016030350 35 110 0.0 0.0 0.00 0.00 0.00 27 1022.7
20181016025357 35 282 1.0 2.0 0.00 0.00 0.00 28 1022.5
20181016024355 34 315 0.0 0.0 0.00 0.00 0.00 32 1022.5
20181016023428 35 315 0.0 0.0 0.00 0.00 0.00 33 1022.8
20181016022359 35 315 0.0 1.0 0.00 0.00 0.00 31 1022.8
20181016021358 35 325 0.0 0.0 0.00 0.00 0.00 31 1022.8
20181016020402 35 328 0.0 0.0 0.00 0.00 0.00 29 1022.4
20181016015428 35 328 0.0 2.0 0.00 0.00 0.00 28 1022.5
20181016014418 36 322 0.0 0.0 0.00 0.00 0.00 30 1022.5
20181016013338 36 322 0.0 1.0 0.00 0.00 0.00 28 1022.4
20181016012335 36 322 0.0 1.0 0.00 0.00 0.00 29 1022.4
20181016011347 36 333 1.0 2.0 0.00 0.00 0.00 29 1022.4
20181016010346 37 315 0.0 0.0 0.00 0.00 0.00 29 1022.6
20181016005353 37 326 0.0 3.0 0.00 0.00 0.00 28 1022.7
20181016004337 37 40 0.0 2.0 0.00 0.00 0.00 26 1022.2